Time;durP1;ratioP1;P1;durP2;ratioP2;P2;SDS_P1;SDS_P2;PMS_P1;PMS_P2;Temp;Humidity;BMP_temperature;BMP_pressure;BME280_temperature;BME280_humidity;BME280_pressure;Samples;Min_cycle;Max_cycle;Signal;HPM_P1;HPM_P2
2022/10/14 00:01:22;;;;;;;3.63;2.63;;;;;;;15.16;45.87;100018.16;5072521;28;20564;-80
2022/10/14 00:03:48;;;;;;;6.93;3.08;;;;;;;14.71;46.14;99946.91;5074124;28;20024;-80
2022/10/14 00:06:20;;;;;;;6.28;2.70;;;;;;;14.67;46.02;99941.16;5074050;28;20547;-80
2022/10/14 00:08:48;;;;;;;4.55;2.85;;;;;;;14.53;46.21;99926.97;5074097;28;20048;-79
2022/10/14 00:11:19;;;;;;;6.30;2.75;;;;;;;14.32;46.62;99882.63;5073877;28;20452;-80
2022/10/14 00:13:44;;;;;;;5.00;2.80;;;;;;;15.15;46.28;100007.72;5073600;28;20074;-80
2022/10/14 00:16:22;;;;;;;5.30;2.90;;;;;;;15.16;46.88;100004.88;5073407;28;20024;-79
2022/10/14 00:18:48;;;;;;;7.57;3.40;;;;;;;15.19;46.58;100015.13;5072455;28;20024;-80
2022/10/14 00:21:14;;;;;;;7.50;3.05;;;;;;;14.53;46.38;99899.56;5073636;28;20493;-80
2022/10/14 00:23:39;;;;;;;8.07;3.00;;;;;;;15.07;46.79;99989.28;5073697;28;20548;-79
2022/10/14 00:26:05;;;;;;;5.60;2.97;;;;;;;14.63;46.84;99927.44;5089159;28;20104;-79
2022/10/14 00:28:31;;;;;;;5.35;3.50;;;;;;;15.20;47.02;99999.97;5089296;28;20417;-80
2022/10/14 00:31:01;;;;;;;6.55;3.10;;;;;;;14.66;46.73;99920.09;5073473;28;20013;-79
2022/10/14 00:33:27;;;;;;;6.00;3.35;;;;;;;15.29;46.89;99995.31;5073609;28;20100;-80
2022/10/14 00:36:02;;;;;;;5.32;3.28;;;;;;;14.79;46.87;99910.34;5073412;28;20036;-80
2022/10/14 00:38:28;;;;;;;7.22;3.38;;;;;;;14.99;47.23;99939.72;5073384;28;20077;-79
2022/10/14 00:40:54;;;;;;;7.63;3.40;;;;;;;14.49;47.13;99861.94;5073085;28;20103;-80
2022/10/14 00:43:21;;;;;;;5.65;3.20;;;;;;;15.08;47.54;99945.69;5072958;28;20086;-80
2022/10/14 00:45:47;;;;;;;8.88;3.13;;;;;;;15.01;47.52;99923.56;5088601;28;20111;-80
2022/10/14 00:48:13;;;;;;;5.25;3.00;;;;;;;14.96;47.58;99915.38;5072868;28;20127;-79
2022/10/14 00:50:42;;;;;;;5.95;3.00;;;;;;;14.74;48.59;99880.88;5072930;28;20028;-79
2022/10/14 00:53:10;;;;;;;8.40;3.80;;;;;;;15.27;49.32;99942.31;5071772;28;20600;-80
2022/10/14 00:55:37;;;;;;;10.88;3.42;;;;;;;14.80;49.73;99863.31;5072789;28;20031;-79
2022/10/14 00:58:03;;;;;;;6.78;3.65;;;;;;;15.49;50.27;99965.09;5072884;28;20024;-80
2022/10/14 01:00:28;;;;;;;8.63;3.63;;;;;;;14.86;50.93;99857.22;5073112;28;20098;-80
2022/10/14 01:02:56;;;;;;;5.40;3.17;;;;;;;15.33;51.47;99948.66;5072707;28;20080;-79
2022/10/14 01:05:23;;;;;;;10.15;3.45;;;;;;;15.38;52.09;99944.41;5072815;28;20027;-79
2022/10/14 01:07:48;;;;;;;8.23;2.92;;;;;;;15.47;52.40;99956.50;5072910;28;20024;-79
2022/10/14 01:10:20;;;;;;;7.93;3.08;;;;;;;15.47;52.61;99956.50;5072476;28;20412;-79
2022/10/14 01:13:19;;;;;;;4.50;2.58;;;;;;;15.43;53.62;99957.91;5088435;28;20374;-80
2022/10/14 01:15:54;;;;;;;9.35;2.95;;;;;;;15.38;53.56;99952.38;5072815;28;20600;-80
2022/10/14 01:18:28;;;;;;;6.72;2.55;;;;;;;15.31;53.25;99946.22;5088043;28;20040;-80
2022/10/14 01:21:06;;;;;;;10.60;3.28;;;;;;;15.37;53.92;99957.91;5072271;28;20020;-80
2022/10/14 01:23:49;;;;;;;9.25;3.47;;;;;;;15.38;53.87;99963.03;5072274;28;20020;-79
2022/10/14 01:26:28;;;;;;;8.13;2.92;;;;;;;15.34;54.11;99960.97;5072305;28;20505;-80
2022/10/14 01:29:12;;;;;;;7.20;3.00;;;;;;;15.36;53.43;99962.41;5087718;28;20109;-80
2022/10/14 01:31:43;;;;;;;6.75;3.50;;;;;;;15.26;52.19;99953.97;5072084;28;20091;-80
2022/10/14 01:34:12;;;;;;;10.05;3.50;;;;;;;15.25;51.81;99961.13;5071903;28;20512;-80
2022/10/14 01:36:55;;;;;;;5.07;2.63;;;;;;;15.13;51.47;99957.38;5071741;28;20029;-80
2022/10/14 01:39:26;;;;;;;5.25;2.67;;;;;;;15.02;51.31;99947.31;5071946;28;20024;-80
2022/10/14 01:41:58;;;;;;;6.90;3.10;;;;;;;14.54;51.13;99895.91;5070685;28;20211;-80
2022/10/14 01:44:27;;;;;;;7.90;3.47;;;;;;;14.64;50.99;99912.31;5071774;28;20027;-80
2022/10/14 01:46:55;;;;;;;8.32;3.10;;;;;;;14.32;50.83;99852.59;5071933;28;20025;-80
2022/10/14 01:49:28;;;;;;;5.80;2.80;;;;;;;14.74;50.83;99952.66;5087307;28;20021;-80
2022/10/14 01:52:00;;;;;;;6.50;2.70;;;;;;;14.90;50.97;99946.22;5071610;28;20582;-80
2022/10/14 01:54:35;;;;;;;6.85;3.17;;;;;;;14.71;50.88;99910.50;5070443;28;20024;-80
2022/10/14 01:57:05;;;;;;;6.53;3.22;;;;;;;14.52;50.65;99871.34;5071976;28;20527;-80
2022/10/14 01:59:33;;;;;;;6.03;2.92;;;;;;;14.75;50.81;99925.03;5087369;28;20459;-80
2022/10/14 02:01:59;;;;;;;7.07;2.50;;;;;;;14.91;50.46;99938.06;5071526;28;20049;-80
2022/10/14 02:04:24;;;;;;;8.50;2.53;;;;;;;14.11;50.86;99848.16;5071216;28;20030;-80
2022/10/14 02:07:26;;;;;;;10.70;2.95;;;;;;;14.15;50.98;99844.13;5071413;28;20456;-80
2022/10/14 02:10:25;;;;;;;6.10;2.35;;;;;;;14.76;51.00;99933.84;5071603;28;20082;-80
2022/10/14 02:13:02;;;;;;;6.22;2.50;;;;;;;14.75;51.41;99924.22;5071366;28;20024;-80
2022/10/14 02:15:44;;;;;;;9.10;2.72;;;;;;;14.57;50.95;99906.13;5071330;28;20055;-80
2022/10/14 02:18:22;;;;;;;6.25;2.78;;;;;;;14.40;51.11;99908.25;5071329;28;20028;-80
2022/10/14 02:21:04;;;;;;;6.47;2.83;;;;;;;14.12;51.04;99830.38;5070031;28;20442;-80
2022/10/14 02:23:33;;;;;;;;;;;;;;;14.53;51.66;99918.16;5071946;28;20024;-80
2022/10/14 02:26:01;;;;;;;6.90;2.58;;;;;;;14.23;51.21;99862.56;5071561;28;19934;-80
2022/10/14 02:28:29;;;;;;;6.75;2.42;;;;;;;14.58;51.48;99921.88;5071401;28;20093;-80
2022/10/14 02:31:06;;;;;;;6.40;2.80;;;;;;;14.20;51.61;99870.91;5087077;28;20099;-80
2022/10/14 02:33:38;;;;;;;7.90;2.70;;;;;;;14.57;51.30;99916.75;5088534;28;20016;-80
2022/10/14 02:36:06;;;;;;;5.25;2.30;;;;;;;14.58;51.32;99913.09;5075065;28;20020;-80
2022/10/14 02:38:32;;;;;;;7.18;2.60;;;;;;;14.49;51.70;99916.91;5073391;28;20020;-80
2022/10/14 02:41:03;;;;;;;6.25;2.50;;;;;;;14.24;51.48;99887.28;5070033;28;20503;-80
2022/10/14 02:43:28;;;;;;;8.18;2.65;;;;;;;14.41;51.37;99923.16;5071563;28;20035;-80
2022/10/14 02:46:00;;;;;;;7.93;2.70;;;;;;;14.33;51.73;99920.66;5071804;28;20020;-80
2022/10/14 02:48:26;;;;;;;3.90;2.33;;;;;;;13.87;51.61;99849.38;5071529;28;20519;-80
2022/10/14 02:50:51;;;;;;;5.30;3.05;;;;;;;13.28;51.86;99787.81;5086770;28;20047;-80
2022/10/14 02:53:17;;;;;;;4.85;2.45;;;;;;;13.79;52.02;99860.13;5069948;28;20016;-80
2022/10/14 02:55:42;;;;;;;4.57;2.17;;;;;;;13.56;52.03;99843.59;5070859;28;20020;-80
2022/10/14 02:58:08;;;;;;;3.70;2.60;;;;;;;11.68;52.19;99547.81;5070990;28;20035;-80
2022/10/14 03:00:33;;;;;;;5.57;2.50;;;;;;;13.35;52.28;99826.66;5071020;28;20016;-80
2022/10/14 03:02:59;;;;;;;6.05;2.50;;;;;;;13.53;52.46;99850.09;5070836;28;20044;-80
2022/10/14 03:05:24;;;;;;;5.93;2.60;;;;;;;13.70;52.41;99887.81;5069487;28;20016;-80
2022/10/14 03:07:50;;;;;;;5.28;2.40;;;;;;;13.61;52.53;99878.34;5070890;28;20016;-80
2022/10/14 03:10:16;;;;;;;4.13;2.00;;;;;;;13.88;52.67;99925.34;5070945;28;20489;-80
2022/10/14 03:12:41;;;;;;;5.38;2.47;;;;;;;13.70;52.84;99906.41;5070957;28;20024;-80
2022/10/14 03:15:07;;;;;;;3.60;2.28;;;;;;;13.59;53.00;99888.31;5070968;28;20029;-80
2022/10/14 03:17:33;;;;;;;6.18;2.38;;;;;;;13.48;52.83;99867.59;5089183;28;20063;-80
2022/10/14 03:19:58;;;;;;;5.00;2.05;;;;;;;13.14;52.92;99837.22;5073418;28;20032;-80
2022/10/14 03:22:24;;;;;;;8.02;2.60;;;;;;;13.73;53.10;99918.47;5090394;28;20107;-81
2022/10/14 03:24:50;;;;;;;3.55;2.47;;;;;;;13.32;53.18;99861.50;5074567;28;20013;-80
2022/10/14 03:27:15;;;;;;;3.55;2.22;;;;;;;13.49;53.29;99885.97;5090165;28;20107;-80
2022/10/14 03:29:40;;;;;;;3.97;2.28;;;;;;;12.91;53.63;99796.78;5074602;28;20100;-80
2022/10/14 03:32:06;;;;;;;5.18;2.72;;;;;;;13.27;53.69;99876.34;5074498;28;20020;-80
2022/10/14 03:34:31;;;;;;;5.95;2.45;;;;;;;13.19;53.52;99853.41;5074232;28;20028;-80
2022/10/14 03:36:57;;;;;;;5.40;2.75;;;;;;;13.06;53.75;99832.00;5074167;28;20020;-80
2022/10/14 03:39:22;;;;;;;7.22;3.30;;;;;;;13.15;53.18;99838.03;5089943;28;20496;-80
2022/10/14 03:41:47;;;;;;;5.10;2.72;;;;;;;13.01;53.26;99829.09;5074458;28;20024;-80
2022/10/14 03:44:13;;;;;;;4.75;2.53;;;;;;;13.33;53.22;99883.53;5074271;28;20512;-80
2022/10/14 03:46:38;;;;;;;5.95;2.90;;;;;;;13.21;53.40;99856.69;5074352;28;20016;-80
2022/10/14 03:49:04;;;;;;;5.00;2.80;;;;;;;13.12;53.05;99835.75;5074484;28;20067;-80
2022/10/14 03:51:29;;;;;;;11.05;3.20;;;;;;;12.97;53.31;99830.50;5074104;28;20103;-80
2022/10/14 03:53:54;;;;;;;4.32;2.30;;;;;;;12.77;53.43;99803.75;5074093;28;20029;-80
2022/10/14 03:56:21;;;;;;;6.32;3.08;;;;;;;13.53;53.33;99913.78;5074043;28;20021;-80
2022/10/14 03:58:46;;;;;;;4.55;2.25;;;;;;;12.55;53.50;99739.28;5074058;28;20024;-80
2022/10/14 04:01:11;;;;;;;6.53;2.78;;;;;;;13.00;53.24;99817.69;5073693;28;20025;-80
2022/10/14 04:03:37;;;;;;;5.25;2.92;;;;;;;13.13;53.57;99867.38;5073976;28;20486;-80
2022/10/14 04:06:03;;;;;;;5.45;2.45;;;;;;;13.28;53.69;99864.72;5072602;28;20032;-80
2022/10/14 04:08:29;;;;;;;3.97;2.22;;;;;;;12.81;53.59;99798.91;5073981;28;20013;-80
2022/10/14 04:10:55;;;;;;;4.80;2.45;;;;;;;13.46;53.63;99896.97;5073726;28;20032;-80
2022/10/14 04:13:21;;;;;;;6.68;2.65;;;;;;;13.43;53.63;99885.91;5073594;28;20052;-80
2022/10/14 04:15:47;;;;;;;4.97;2.28;;;;;;;13.28;53.83;99870.03;5073719;28;20028;-80
2022/10/14 04:18:12;;;;;;;6.55;2.80;;;;;;;12.43;53.76;99718.75;5073664;28;20488;-80
2022/10/14 04:20:38;;;;;;;2.92;2.55;;;;;;;13.10;54.13;99835.13;5073597;28;20040;-80
2022/10/14 04:23:04;;;;;;;6.55;3.22;;;;;;;12.94;53.94;99791.94;5089229;28;20028;-80
2022/10/14 04:25:29;;;;;;;7.32;2.42;;;;;;;13.24;53.74;99827.16;5073580;28;20024;-80
2022/10/14 04:27:54;;;;;;;4.70;2.50;;;;;;;13.42;53.57;99873.66;5072172;28;20040;-80
2022/10/14 04:30:20;;;;;;;4.80;3.20;;;;;;;12.93;53.97;99813.31;5073424;28;20556;-80
2022/10/14 04:32:45;;;;;;;6.35;3.45;;;;;;;13.36;53.76;99848.69;5073394;28;20020;-80
2022/10/14 04:35:11;;;;;;;4.38;2.80;;;;;;;13.60;53.90;99877.53;5073547;28;20108;-80
2022/10/14 04:37:37;;;;;;;6.72;2.78;;;;;;;12.77;53.78;99736.69;5073338;28;20021;-80
2022/10/14 04:40:03;;;;;;;7.75;3.20;;;;;;;13.63;54.19;99877.16;5073538;28;20016;-80
2022/10/14 04:42:29;;;;;;;5.00;2.95;;;;;;;13.07;53.66;99779.81;5088810;28;20021;-80
2022/10/14 04:44:54;;;;;;;7.63;3.17;;;;;;;13.15;53.81;99801.72;5088824;28;20550;-80
2022/10/14 04:47:20;;;;;;;6.82;2.92;;;;;;;12.84;53.82;99748.19;5073236;28;20428;-80
2022/10/14 04:49:45;;;;;;;7.95;3.47;;;;;;;13.39;53.89;99848.34;5073134;28;20103;-80
2022/10/14 04:52:10;;;;;;;6.30;3.50;;;;;;;13.56;53.82;99878.09;5073024;28;20029;-80
2022/10/14 04:54:36;;;;;;;7.25;3.42;;;;;;;13.23;53.77;99812.25;5072980;28;20028;-80
2022/10/14 04:57:01;;;;;;;12.32;4.32;;;;;;;12.97;53.58;99758.94;5072837;28;20031;-80
2022/10/14 04:59:27;;;;;;;8.93;3.67;;;;;;;13.25;53.94;99823.47;5072867;28;20493;-80
2022/10/14 05:01:52;;;;;;;12.10;4.20;;;;;;;13.30;53.75;99810.47;5072669;28;20457;-80
2022/10/14 05:04:18;;;;;;;10.25;4.25;;;;;;;13.48;53.58;99827.81;5072717;28;20017;-80
2022/10/14 05:06:43;;;;;;;9.07;4.45;;;;;;;13.54;53.96;99851.75;5072413;28;20040;-80
2022/10/14 05:09:08;;;;;;;8.40;3.63;;;;;;;13.80;53.80;99898.94;5072620;28;20020;-80
2022/10/14 05:11:34;;;;;;;8.75;3.70;;;;;;;13.80;53.94;99888.31;5073221;28;20031;-80
2022/10/14 05:13:59;;;;;;;12.25;3.92;;;;;;;13.31;53.83;99798.88;5072705;28;20034;-80
2022/10/14 05:16:25;;;;;;;5.65;3.50;;;;;;;13.50;53.88;99823.16;5072522;28;20029;-80
2022/10/14 05:18:51;;;;;;;5.95;3.25;;;;;;;13.89;53.95;99886.34;5072880;28;20017;-80
2022/10/14 05:21:16;;;;;;;7.40;3.53;;;;;;;13.98;53.81;99882.56;5072593;28;20050;-80
2022/10/14 05:23:42;;;;;;;11.25;3.55;;;;;;;13.47;53.81;99799.66;5072474;28;20024;-80
2022/10/14 05:26:09;;;;;;;5.43;2.50;;;;;;;13.77;53.46;99840.13;5072722;28;20070;-80
2022/10/14 05:28:37;;;;;;;4.10;2.75;;;;;;;14.16;53.51;99903.34;5072371;28;20013;-80
2022/10/14 05:31:03;;;;;;;5.13;2.83;;;;;;;13.62;53.63;99821.63;5072015;28;20413;-80
2022/10/14 05:33:28;;;;;;;5.95;3.00;;;;;;;13.98;53.55;99867.44;5087664;28;20020;-80
2022/10/14 05:35:54;;;;;;;9.35;3.10;;;;;;;13.00;53.65;99711.66;5071807;28;20032;-80
2022/10/14 05:38:19;;;;;;;6.20;2.78;;;;;;;13.89;53.54;99865.94;5072171;28;20025;-80
2022/10/14 05:40:56;;;;;;;5.40;2.50;;;;;;;14.19;53.82;99895.00;5071196;28;20020;-80
2022/10/14 05:43:23;;;;;;;9.05;3.25;;;;;;;13.43;53.51;99778.00;5071778;28;20103;-80
2022/10/14 05:45:49;;;;;;;7.75;3.28;;;;;;;13.88;53.61;99837.75;5072068;28;20027;-80
2022/10/14 05:48:14;;;;;;;4.97;2.65;;;;;;;13.59;53.47;99783.03;5087486;28;20111;-80
2022/10/14 05:50:41;;;;;;;6.30;3.40;;;;;;;14.32;53.52;99906.53;5069966;28;20027;-79
2022/10/14 05:53:06;;;;;;;8.63;3.03;;;;;;;14.19;53.68;99882.53;5070107;28;20032;-80
2022/10/14 05:55:32;;;;;;;11.57;3.50;;;;;;;13.74;53.62;99833.34;5071722;28;20021;-80
2022/10/14 05:57:57;;;;;;;13.13;3.80;;;;;;;13.71;53.75;99824.97;5087121;28;20036;-80
2022/10/14 06:00:23;;;;;;;9.13;3.45;;;;;;;14.08;53.92;99871.59;5071288;28;20520;-80
2022/10/14 06:02:49;;;;;;;8.80;4.28;;;;;;;13.96;54.11;99837.63;5071273;28;20044;-80
2022/10/14 06:05:14;;;;;;;6.68;4.13;;;;;;;13.77;54.18;99803.78;5070585;28;20107;-80
2022/10/14 06:07:40;;;;;;;8.77;3.95;;;;;;;14.04;54.27;99831.34;5071470;28;20021;-80
2022/10/14 06:10:06;;;;;;;8.05;3.78;;;;;;;14.13;54.08;99846.16;5071482;28;20512;-80
2022/10/14 06:12:32;;;;;;;5.82;3.42;;;;;;;14.61;53.98;99910.03;5071722;28;20052;-80
2022/10/14 06:14:58;;;;;;;6.38;3.15;;;;;;;14.30;54.19;99841.34;5076258;28;20090;-80
2022/10/14 06:17:23;;;;;;;7.03;4.18;;;;;;;14.28;53.97;99812.34;5080450;28;20412;-79
2022/10/14 06:19:49;;;;;;;6.50;3.85;;;;;;;14.85;54.38;99904.25;5078685;28;20170;-79
2022/10/14 06:22:15;;;;;;;5.53;3.42;;;;;;;14.54;54.09;99843.56;5079134;28;20047;-80
2022/10/14 06:24:41;;;;;;;5.63;4.07;;;;;;;13.81;54.19;99704.19;5085280;28;20051;-80
2022/10/14 06:27:07;;;;;;;6.75;3.45;;;;;;;14.49;54.50;99814.13;5087725;28;20018;-80
2022/10/14 06:29:36;;;;;;;6.28;3.67;;;;;;;15.09;54.46;99905.63;5090832;28;20028;-79
2022/10/14 06:32:07;;;;;;;7.45;2.95;;;;;;;14.68;54.64;99825.84;5089563;28;20513;-80
2022/10/14 06:34:33;;;;;;;7.93;3.10;;;;;;;14.79;54.59;99827.94;5089445;28;20115;-79
2022/10/14 06:37:00;;;;;;;5.38;2.65;;;;;;;15.25;54.50;99894.63;5087000;28;20028;-80
2022/10/14 06:39:26;;;;;;;5.85;2.53;;;;;;;14.65;54.32;99797.00;5076786;28;20085;-80
2022/10/14 06:41:53;;;;;;;6.05;2.67;;;;;;;15.40;54.23;99902.44;5074664;28;20035;-80
2022/10/14 06:44:20;;;;;;;5.68;2.95;;;;;;;14.85;54.61;99826.34;5075481;28;20032;-79
2022/10/14 06:46:45;;;;;;;7.00;2.85;;;;;;;15.32;54.57;99885.84;5077222;28;20408;-80
2022/10/14 06:49:11;;;;;;;7.25;3.28;;;;;;;15.21;54.62;99873.94;5077337;28;20028;-80
2022/10/14 06:51:40;;;;;;;9.98;5.15;;;;;;;14.24;54.10;99678.28;5073930;28;20517;-80
2022/10/14 06:54:06;;;;;;;9.45;4.57;;;;;;;15.67;53.78;99899.91;5073789;28;20031;-80
2022/10/14 06:56:33;;;;;;;9.95;3.80;;;;;;;15.57;53.74;99886.94;5076522;28;20706;-80
2022/10/14 06:58:59;;;;;;;8.45;3.42;;;;;;;15.15;53.51;99802.94;5091947;28;20020;-79
2022/10/14 07:01:25;;;;;;;9.85;3.20;;;;;;;15.10;53.28;99784.91;5088087;28;20087;-79
2022/10/14 07:03:51;;;;;;;8.98;3.58;;;;;;;15.90;53.51;99903.00;5076481;28;20039;-80
2022/10/14 07:06:17;;;;;;;9.15;2.50;;;;;;;15.57;53.44;99842.53;5075070;28;20455;-80
2022/10/14 07:08:43;;;;;;;10.07;2.40;;;;;;;15.50;53.12;99832.88;5093037;28;20150;-80
2022/10/14 07:11:10;;;;;;;4.93;2.90;;;;;;;15.94;53.38;99879.44;5094170;28;20468;-79
2022/10/14 07:13:36;;;;;;;6.60;2.25;;;;;;;15.72;53.08;99834.38;5079847;28;20215;-79
2022/10/14 07:16:03;;;;;;;5.00;1.65;;;;;;;15.87;52.94;99856.31;5093433;28;20024;-79
2022/10/14 07:18:30;;;;;;;11.80;5.22;;;;;;;15.74;52.67;99819.03;5087624;28;20031;-79
2022/10/14 07:20:56;;;;;;;12.13;3.10;;;;;;;16.31;52.46;99888.66;5079902;28;20052;-79
2022/10/14 07:23:22;;;;;;;7.20;3.15;;;;;;;16.29;52.51;99896.84;5073981;28;20528;-79
2022/10/14 07:25:48;;;;;;;9.38;2.65;;;;;;;15.84;52.48;99808.78;5093303;28;20035;-80
2022/10/14 07:28:14;;;;;;;7.20;2.50;;;;;;;16.33;52.63;99894.59;5092454;28;20024;-79
2022/10/14 07:30:43;;;;;;;8.57;2.47;;;;;;;16.13;52.66;99855.47;5091045;28;20443;-80
2022/10/14 07:33:09;;;;;;;7.22;2.40;;;;;;;15.86;52.59;99782.78;5080365;28;20295;-79
2022/10/14 07:36:01;;;;;;;6.18;3.30;;;;;;;16.57;52.70;99877.97;5093149;28;20054;-79
2022/10/14 07:38:26;;;;;;;7.05;2.80;;;;;;;16.56;52.54;99864.84;5094440;28;20024;-79
2022/10/14 07:41:16;;;;;;;5.43;2.38;;;;;;;16.32;52.34;99829.81;5081193;28;20217;-79
2022/10/14 07:43:44;;;;;;;5.93;2.70;;;;;;;15.46;51.81;99659.50;5071021;28;20043;-79
2022/10/14 07:46:11;;;;;;;7.57;4.78;;;;;;;16.64;51.75;99844.13;5073313;28;20427;-79
2022/10/14 07:48:37;;;;;;;6.63;2.85;;;;;;;16.59;51.75;99816.44;5075256;28;20514;-79
2022/10/14 07:51:04;;;;;;;3.33;2.45;;;;;;;17.10;51.81;99867.19;5092963;28;20080;-79
2022/10/14 07:53:29;;;;;;;6.60;2.30;;;;;;;16.77;51.61;99797.94;5078730;28;20031;-79
2022/10/14 07:55:57;;;;;;;4.13;2.40;;;;;;;16.69;51.20;99764.34;5072400;28;20016;-79
2022/10/14 07:58:25;;;;;;;6.05;2.13;;;;;;;16.42;51.32;99720.97;5080379;28;20382;-78
2022/10/14 08:00:51;;;;;;;8.02;3.92;;;;;;;17.37;51.03;99858.00;5090065;28;20019;-78
2022/10/14 08:03:18;;;;;;;6.80;2.13;;;;;;;16.61;50.95;99721.09;5085200;28;20044;-80
2022/10/14 08:05:44;;;;;;;7.93;2.60;;;;;;;16.01;50.85;99605.94;5092036;28;20024;-79
2022/10/14 08:08:10;;;;;;;6.75;2.17;;;;;;;17.27;50.70;99822.97;5093235;28;20020;-79
2022/10/14 08:10:36;;;;;;;3.10;1.98;;;;;;;17.28;50.63;99802.44;5076264;28;20413;-79
2022/10/14 08:13:01;;;;;;;9.57;4.82;;;;;;;17.29;50.68;99796.06;5075566;28;20028;-78
2022/10/14 08:15:28;;;;;;;13.50;6.43;;;;;;;17.14;50.56;99765.16;5090265;28;20024;-79
2022/10/14 08:17:55;;;;;;;8.38;3.95;;;;;;;17.19;50.16;99745.84;5091054;28;20028;-79
2022/10/14 08:20:21;;;;;;;5.13;2.60;;;;;;;17.88;50.32;99857.09;5072019;28;20024;-77
2022/10/14 08:22:46;;;;;;;3.83;2.28;;;;;;;17.25;49.84;99730.81;5074234;28;20028;-80
2022/10/14 08:25:12;;;;;;;5.93;2.40;;;;;;;17.87;50.12;99819.91;5085443;28;20471;-79
2022/10/14 08:27:37;;;;;;;4.43;2.38;;;;;;;17.51;49.74;99743.13;5085598;28;20031;-79
2022/10/14 08:30:04;;;;;;;2.30;2.05;;;;;;;18.20;49.60;99833.78;5074712;28;20090;-78
2022/10/14 08:32:29;;;;;;;4.78;2.70;;;;;;;17.74;49.44;99752.19;5074064;28;20020;-79
2022/10/14 08:34:55;;;;;;;5.47;2.10;;;;;;;18.01;48.93;99784.03;5071705;28;20031;-80
2022/10/14 08:37:21;;;;;;;3.47;1.90;;;;;;;18.06;49.00;99797.53;5075815;28;20294;-79
2022/10/14 08:39:46;;;;;;;2.72;1.75;;;;;;;18.18;48.81;99800.31;5070988;28;20119;-78
2022/10/14 08:42:29;;;;;;;5.03;2.75;;;;;;;18.14;48.71;99777.72;5070320;28;20127;-79
2022/10/14 08:45:00;;;;;;;5.38;2.67;;;;;;;18.55;48.29;99841.25;5072320;28;20493;-80
2022/10/14 08:47:35;;;;;;;4.43;2.38;;;;;;;18.69;47.73;99840.13;5070780;28;20034;-77
2022/10/14 08:50:13;;;;;;;2.90;1.95;;;;;;;18.79;46.94;99829.72;5070558;28;20029;-79
2022/10/14 08:52:47;;;;;;;3.92;2.97;;;;;;;18.40;47.24;99767.56;5071100;28;20048;-78
2022/10/14 08:55:34;;;;;;;11.27;10.07;;;;;;;18.91;47.20;99830.59;5069636;28;20055;-79
2022/10/14 08:58:10;;;;;;;3.35;1.83;;;;;;;18.25;46.86;99742.25;5071945;28;20043;-78
2022/10/14 09:00:36;;;;;;;4.68;2.08;;;;;;;18.20;46.22;99716.19;5070331;28;20020;-78
2022/10/14 09:03:10;;;;;;;5.07;1.85;;;;;;;18.99;45.98;99834.81;5072407;28;20056;-79
2022/10/14 09:05:38;;;;;;;6.20;2.80;;;;;;;18.82;45.90;99791.81;5071282;28;20135;-79
2022/10/14 09:08:05;;;;;;;6.78;4.90;;;;;;;18.76;45.85;99763.28;5071592;28;20505;-79
2022/10/14 09:10:40;;;;;;;3.60;2.00;;;;;;;19.22;45.41;99818.03;5071928;28;20039;-79
2022/10/14 09:13:27;;;;;;;5.13;4.35;;;;;;;18.94;45.21;99767.78;5072995;28;20412;-79
2022/10/14 09:16:01;;;;;;;5.32;1.73;;;;;;;18.87;44.80;99746.47;5071570;28;20474;-78
2022/10/14 09:18:44;;;;;;;8.55;2.50;;;;;;;18.77;44.22;99734.66;5071974;28;20035;-78
2022/10/14 09:21:32;;;;;;;5.07;1.77;;;;;;;19.24;43.03;99822.09;5071665;28;20052;-79
2022/10/14 09:24:03;;;;;;;4.57;2.00;;;;;;;18.92;43.19;99786.72;5069460;28;20020;-79
2022/10/14 09:26:41;;;;;;;4.13;2.05;;;;;;;18.80;43.19;99743.06;5071333;28;20012;-78
2022/10/14 09:29:19;;;;;;;6.45;4.68;;;;;;;19.44;41.85;99816.50;5089206;28;20039;-79
2022/10/14 09:31:44;;;;;;;3.72;2.10;;;;;;;19.30;42.26;99793.59;5090773;28;20027;-79
2022/10/14 09:34:17;;;;;;;5.85;2.25;;;;;;;19.17;41.68;99765.16;5089610;28;20031;-79
2022/10/14 09:36:43;;;;;;;9.88;5.78;;;;;;;18.95;42.11;99729.28;5071507;28;20047;-79
2022/10/14 09:39:11;;;;;;;8.13;5.97;;;;;;;19.05;41.95;99733.03;5069487;28;20480;-79
2022/10/14 09:41:37;;;;;;;5.78;3.28;;;;;;;19.59;41.96;99816.09;5072489;28;20024;-79
2022/10/14 09:44:21;;;;;;;5.65;4.10;;;;;;;19.18;41.57;99748.06;5071099;28;20086;-79
2022/10/14 09:47:01;;;;;;;7.85;3.90;;;;;;;19.25;41.60;99785.44;5088441;28;20047;-79
2022/10/14 09:49:38;;;;;;;5.35;3.40;;;;;;;18.49;42.23;99641.59;5092206;28;20408;-78
2022/10/14 09:52:04;;;;;;;4.65;2.78;;;;;;;18.87;42.22;99700.16;5092201;28;20039;-79
2022/10/14 09:54:31;;;;;;;6.05;4.40;;;;;;;19.16;42.24;99735.97;5088151;28;20496;-79
2022/10/14 09:57:16;;;;;;;8.82;6.05;;;;;;;19.08;42.11;99730.94;5090577;28;20067;-80
2022/10/14 09:59:52;;;;;;;4.80;4.18;;;;;;;19.63;42.26;99804.69;5089900;28;20012;-79
2022/10/14 10:02:23;;;;;;;4.20;3.00;;;;;;;19.62;42.25;99800.38;5088761;28;20072;-78
2022/10/14 10:04:49;;;;;;;4.25;3.20;;;;;;;19.64;42.14;99798.28;5089300;28;20386;-79
2022/10/14 10:07:26;;;;;;;9.00;5.07;;;;;;;19.71;42.31;99802.72;5091591;28;20103;-79
2022/10/14 10:09:57;;;;;;;8.55;4.65;;;;;;;19.01;42.07;99685.53;5091459;28;20085;-78
2022/10/14 10:12:31;;;;;;;8.98;4.13;;;;;;;19.56;42.25;99769.16;5090188;28;20030;-79
2022/10/14 10:15:04;;;;;;;9.95;3.00;;;;;;;19.74;42.36;99799.56;5090232;28;20459;-79
2022/10/14 10:17:37;;;;;;;6.53;2.53;;;;;;;19.74;42.23;99784.31;5091407;28;20019;-79
2022/10/14 10:20:17;;;;;;;4.32;3.15;;;;;;;19.66;42.48;99788.16;5091954;28;20034;-78
2022/10/14 10:22:42;;;;;;;5.45;3.17;;;;;;;17.69;42.63;99457.47;5090258;28;20032;-79
2022/10/14 10:25:08;;;;;;;6.57;3.55;;;;;;;19.76;42.75;99778.72;5091284;28;20028;-79
2022/10/14 10:27:55;;;;;;;4.65;2.78;;;;;;;19.76;42.68;99778.72;5091126;28;20100;-79
2022/10/14 10:30:22;;;;;;;7.93;3.15;;;;;;;19.80;42.60;99775.34;5091453;28;20023;-79
2022/10/14 10:32:56;;;;;;;4.53;2.42;;;;;;;19.79;42.47;99763.00;5089812;28;20051;-79
2022/10/14 10:35:29;;;;;;;6.43;3.80;;;;;;;19.35;42.43;99681.31;5091167;28;20073;-79
2022/10/14 10:38:06;;;;;;;6.35;2.85;;;;;;;19.71;41.86;99736.56;5089896;28;20016;-79
2022/10/14 10:41:02;;;;;;;6.10;3.83;;;;;;;19.93;42.10;99763.59;5099200;28;20023;-79
2022/10/14 10:43:39;;;;;;;5.47;3.30;;;;;;;19.96;42.16;99757.75;5090720;28;20119;-79
2022/10/14 10:46:04;;;;;;;6.57;2.67;;;;;;;20.00;42.08;99754.38;5089673;28;20058;-79
2022/10/14 10:49:00;;;;;;;5.80;3.38;;;;;;;19.98;42.04;99756.47;5089550;28;20020;-78
2022/10/14 10:51:43;;;;;;;3.90;2.88;;;;;;;20.03;42.01;99741.53;5088274;28;20110;-79
2022/10/14 10:54:23;;;;;;;5.63;2.83;;;;;;;20.08;41.46;99747.06;5091642;28;20024;-79
2022/10/14 10:57:02;;;;;;;6.90;4.32;;;;;;;19.78;41.93;99702.41;5085460;28;20032;-79
2022/10/14 10:59:43;;;;;;;7.88;3.72;;;;;;;19.52;41.83;99663.53;5090973;28;20036;-79
2022/10/14 11:02:11;;;;;;;4.43;2.80;;;;;;;20.08;41.95;99739.81;5090912;28;20132;-78
2022/10/14 11:04:46;;;;;;;7.05;3.35;;;;;;;19.73;41.95;99670.16;5090699;28;20033;-79
2022/10/14 11:12:54;;;;;;;5.18;3.53;;;;;;;19.60;41.60;99636.41;5080129;28;20471;-79
2022/10/14 11:15:26;;;;;;;7.20;3.38;;;;;;;20.19;41.63;99724.78;5077009;28;20026;-80
2022/10/14 11:18:01;;;;;;;5.95;3.50;;;;;;;20.17;41.66;99718.84;5092285;28;20035;-79
2022/10/14 11:20:32;;;;;;;6.38;3.63;;;;;;;20.20;41.70;99710.31;5089824;28;20028;-78
2022/10/14 11:22:58;;;;;;;6.32;5.53;;;;;;;20.22;41.47;99700.16;5087316;28;20078;-79
2022/10/14 11:25:48;;;;;;;4.88;3.28;;;;;;;20.20;41.25;99695.03;5075128;28;20059;-79
2022/10/14 11:28:38;;;;;;;9.55;5.68;;;;;;;20.18;41.01;99690.97;5070631;28;20055;-79
2022/10/14 11:31:07;;;;;;;6.70;3.33;;;;;;;20.17;41.25;99690.16;5082964;28;20042;-79
2022/10/14 11:33:53;;;;;;;9.73;4.20;;;;;;;20.19;41.42;99685.38;5080171;28;20025;-79
2022/10/14 11:36:38;;;;;;;9.85;4.25;;;;;;;19.75;41.04;99609.13;5071983;28;20082;-79
2022/10/14 11:39:28;;;;;;;10.23;5.40;;;;;;;20.27;41.13;99671.59;5074091;28;20097;-79
2022/10/14 11:42:12;;;;;;;8.73;6.05;;;;;;;19.89;40.99;99615.84;5074076;28;20025;-79
2022/10/14 11:44:41;;;;;;;6.43;4.60;;;;;;;20.35;41.17;99666.91;5083451;28;20245;-79
2022/10/14 11:47:14;;;;;;;8.63;5.35;;;;;;;19.84;41.30;99574.75;5084349;28;20017;-78
2022/10/14 11:50:06;;;;;;;5.30;3.47;;;;;;;20.42;40.90;99659.56;5076218;28;20075;-79
2022/10/14 11:53:00;;;;;;;9.05;4.10;;;;;;;19.85;40.78;99576.38;5070394;28;20036;-78